sensor_id;sensor_type;location;lat;lon;timestamp;P1;durP1;ratioP1;P2;durP2;ratioP2
36233;SDS011;43467;50.890;5.982;2022-12-18T00:01:42;32.28;;;19.02;;
36233;SDS011;43467;50.890;5.982;2022-12-18T00:04:21;32.55;;;20.98;;
36233;SDS011;43467;50.890;5.982;2022-12-18T00:06:48;32.88;;;19.50;;
36233;SDS011;43467;50.890;5.982;2022-12-18T00:09:13;31.90;;;19.95;;
36233;SDS011;43467;50.890;5.982;2022-12-18T00:11:39;34.90;;;19.90;;
36233;SDS011;43467;50.890;5.982;2022-12-18T00:14:04;33.00;;;20.63;;
36233;SDS011;43467;50.890;5.982;2022-12-18T00:16:30;36.00;;;21.10;;
36233;SDS011;43467;50.890;5.982;2022-12-18T00:18:58;33.60;;;19.50;;
36233;SDS011;43467;50.890;5.982;2022-12-18T00:21:24;29.92;;;19.42;;
36233;SDS011;43467;50.890;5.982;2022-12-18T00:23:51;32.55;;;19.23;;
36233;SDS011;43467;50.890;5.982;2022-12-18T00:26:18;32.30;;;20.05;;
36233;SDS011;43467;50.890;5.982;2022-12-18T00:28:47;31.70;;;19.67;;
36233;SDS011;43467;50.890;5.982;2022-12-18T00:31:18;29.75;;;17.42;;
36233;SDS011;43467;50.890;5.982;2022-12-18T00:33:45;24.98;;;15.95;;
36233;SDS011;43467;50.890;5.982;2022-12-18T00:36:14;26.08;;;16.20;;
36233;SDS011;43467;50.890;5.982;2022-12-18T00:38:42;26.20;;;15.05;;
36233;SDS011;43467;50.890;5.982;2022-12-18T00:41:09;24.35;;;15.35;;
36233;SDS011;43467;50.890;5.982;2022-12-18T00:43:36;25.80;;;16.08;;
36233;SDS011;43467;50.890;5.982;2022-12-18T00:46:02;28.10;;;16.30;;
36233;SDS011;43467;50.890;5.982;2022-12-18T00:48:28;28.10;;;16.88;;
36233;SDS011;43467;50.890;5.982;2022-12-18T00:50:53;26.23;;;14.88;;
36233;SDS011;43467;50.890;5.982;2022-12-18T00:53:19;29.08;;;15.00;;
36233;SDS011;43467;50.890;5.982;2022-12-18T00:55:45;26.98;;;15.23;;
36233;SDS011;43467;50.890;5.982;2022-12-18T00:58:11;23.67;;;14.43;;
36233;SDS011;43467;50.890;5.982;2022-12-18T01:00:38;26.38;;;15.05;;
36233;SDS011;43467;50.890;5.982;2022-12-18T01:03:03;24.15;;;13.82;;
36233;SDS011;43467;50.890;5.982;2022-12-18T01:05:29;24.50;;;14.25;;
36233;SDS011;43467;50.890;5.982;2022-12-18T01:07:55;22.95;;;12.80;;
36233;SDS011;43467;50.890;5.982;2022-12-18T01:10:21;24.55;;;13.48;;
36233;SDS011;43467;50.890;5.982;2022-12-18T01:12:47;22.15;;;13.52;;
36233;SDS011;43467;50.890;5.982;2022-12-18T01:15:13;24.08;;;13.30;;
36233;SDS011;43467;50.890;5.982;2022-12-18T01:17:40;20.38;;;13.10;;
36233;SDS011;43467;50.890;5.982;2022-12-18T01:20:06;18.75;;;11.38;;
36233;SDS011;43467;50.890;5.982;2022-12-18T01:22:32;18.67;;;11.68;;
36233;SDS011;43467;50.890;5.982;2022-12-18T01:24:57;19.52;;;12.38;;
36233;SDS011;43467;50.890;5.982;2022-12-18T01:27:23;18.75;;;12.27;;
36233;SDS011;43467;50.890;5.982;2022-12-18T01:29:48;23.77;;;12.85;;
36233;SDS011;43467;50.890;5.982;2022-12-18T01:32:14;20.95;;;12.48;;
36233;SDS011;43467;50.890;5.982;2022-12-18T01:34:40;23.92;;;13.95;;
36233;SDS011;43467;50.890;5.982;2022-12-18T01:37:05;20.95;;;12.40;;
36233;SDS011;43467;50.890;5.982;2022-12-18T01:39:30;23.48;;;13.30;;
36233;SDS011;43467;50.890;5.982;2022-12-18T01:41:57;21.85;;;12.82;;
36233;SDS011;43467;50.890;5.982;2022-12-18T01:50:08;20.90;;;14.13;;
36233;SDS011;43467;50.890;5.982;2022-12-18T01:52:38;34.78;;;16.77;;
36233;SDS011;43467;50.890;5.982;2022-12-18T01:55:06;28.85;;;15.77;;
36233;SDS011;43467;50.890;5.982;2022-12-18T01:57:33;44.80;;;18.13;;
36233;SDS011;43467;50.890;5.982;2022-12-18T02:00:00;25.50;;;13.27;;
36233;SDS011;43467;50.890;5.982;2022-12-18T02:02:27;19.30;;;11.38;;
36233;SDS011;43467;50.890;5.982;2022-12-18T02:04:54;19.52;;;11.05;;
36233;SDS011;43467;50.890;5.982;2022-12-18T02:07:22;22.48;;;12.38;;
36233;SDS011;43467;50.890;5.982;2022-12-18T02:13:12;19.75;;;11.10;;
36233;SDS011;43467;50.890;5.982;2022-12-18T02:18:49;18.25;;;10.23;;
36233;SDS011;43467;50.890;5.982;2022-12-18T02:21:34;14.45;;;10.13;;
36233;SDS011;43467;50.890;5.982;2022-12-18T02:27:12;16.92;;;10.13;;
36233;SDS011;43467;50.890;5.982;2022-12-18T02:32:14;15.65;;;9.20;;
36233;SDS011;43467;50.890;5.982;2022-12-18T02:34:43;15.50;;;9.40;;
36233;SDS011;43467;50.890;5.982;2022-12-18T02:37:11;15.85;;;9.68;;
36233;SDS011;43467;50.890;5.982;2022-12-18T02:39:40;19.65;;;11.07;;
36233;SDS011;43467;50.890;5.982;2022-12-18T02:42:07;18.58;;;10.77;;
36233;SDS011;43467;50.890;5.982;2022-12-18T02:44:34;17.42;;;10.48;;
36233;SDS011;43467;50.890;5.982;2022-12-18T02:47:08;19.33;;;11.23;;
36233;SDS011;43467;50.890;5.982;2022-12-18T02:54:49;16.67;;;9.73;;
36233;SDS011;43467;50.890;5.982;2022-12-18T02:57:34;19.42;;;11.20;;
36233;SDS011;43467;50.890;5.982;2022-12-18T03:00:13;14.60;;;9.70;;
36233;SDS011;43467;50.890;5.982;2022-12-18T03:02:45;19.88;;;9.57;;
36233;SDS011;43467;50.890;5.982;2022-12-18T03:05:28;20.48;;;10.52;;
36233;SDS011;43467;50.890;5.982;2022-12-18T03:08:00;17.35;;;10.25;;
36233;SDS011;43467;50.890;5.982;2022-12-18T03:10:32;15.25;;;9.73;;
36233;SDS011;43467;50.890;5.982;2022-12-18T03:13:09;17.48;;;10.30;;
36233;SDS011;43467;50.890;5.982;2022-12-18T03:15:42;18.80;;;10.90;;
36233;SDS011;43467;50.890;5.982;2022-12-18T03:18:12;17.10;;;9.77;;
36233;SDS011;43467;50.890;5.982;2022-12-18T03:20:42;20.77;;;12.05;;
36233;SDS011;43467;50.890;5.982;2022-12-18T03:23:10;18.65;;;10.38;;
36233;SDS011;43467;50.890;5.982;2022-12-18T03:25:39;19.92;;;10.77;;
36233;SDS011;43467;50.890;5.982;2022-12-18T03:28:08;21.00;;;11.60;;
36233;SDS011;43467;50.890;5.982;2022-12-18T03:30:38;18.92;;;10.80;;
36233;SDS011;43467;50.890;5.982;2022-12-18T03:35:58;20.83;;;11.98;;
36233;SDS011;43467;50.890;5.982;2022-12-18T03:38:23;20.55;;;11.50;;
36233;SDS011;43467;50.890;5.982;2022-12-18T03:40:59;21.20;;;11.05;;
36233;SDS011;43467;50.890;5.982;2022-12-18T03:49:01;28.27;;;12.60;;
36233;SDS011;43467;50.890;5.982;2022-12-18T03:54:16;22.48;;;11.82;;
36233;SDS011;43467;50.890;5.982;2022-12-18T03:56:44;25.02;;;13.55;;
36233;SDS011;43467;50.890;5.982;2022-12-18T03:59:13;21.50;;;12.10;;
36233;SDS011;43467;50.890;5.982;2022-12-18T04:01:41;18.67;;;11.40;;
36233;SDS011;43467;50.890;5.982;2022-12-18T04:04:11;21.05;;;12.02;;
36233;SDS011;43467;50.890;5.982;2022-12-18T04:06:39;19.42;;;11.57;;
36233;SDS011;43467;50.890;5.982;2022-12-18T04:09:07;21.02;;;12.10;;
36233;SDS011;43467;50.890;5.982;2022-12-18T04:11:33;21.90;;;12.25;;
36233;SDS011;43467;50.890;5.982;2022-12-18T04:13:58;18.92;;;10.98;;
36233;SDS011;43467;50.890;5.982;2022-12-18T04:16:24;19.17;;;11.57;;
36233;SDS011;43467;50.890;5.982;2022-12-18T04:18:51;21.55;;;12.10;;
36233;SDS011;43467;50.890;5.982;2022-12-18T04:21:16;26.60;;;12.73;;
36233;SDS011;43467;50.890;5.982;2022-12-18T04:23:42;21.38;;;12.48;;
36233;SDS011;43467;50.890;5.982;2022-12-18T04:26:07;22.50;;;13.32;;
36233;SDS011;43467;50.890;5.982;2022-12-18T04:28:32;21.17;;;12.18;;
36233;SDS011;43467;50.890;5.982;2022-12-18T04:30:58;21.23;;;11.55;;
36233;SDS011;43467;50.890;5.982;2022-12-18T04:33:23;23.25;;;12.77;;
36233;SDS011;43467;50.890;5.982;2022-12-18T04:35:48;22.55;;;12.40;;
36233;SDS011;43467;50.890;5.982;2022-12-18T04:38:14;21.52;;;12.48;;
36233;SDS011;43467;50.890;5.982;2022-12-18T04:40:40;24.00;;;13.35;;
36233;SDS011;43467;50.890;5.982;2022-12-18T04:43:06;23.38;;;12.48;;
36233;SDS011;43467;50.890;5.982;2022-12-18T04:45:31;21.83;;;12.43;;
36233;SDS011;43467;50.890;5.982;2022-12-18T04:47:57;20.25;;;12.23;;
36233;SDS011;43467;50.890;5.982;2022-12-18T04:50:23;23.50;;;12.38;;
36233;SDS011;43467;50.890;5.982;2022-12-18T04:52:49;21.45;;;11.98;;
36233;SDS011;43467;50.890;5.982;2022-12-18T04:55:14;24.52;;;12.32;;
36233;SDS011;43467;50.890;5.982;2022-12-18T04:57:40;21.40;;;12.80;;
36233;SDS011;43467;50.890;5.982;2022-12-18T05:00:05;24.17;;;12.48;;
36233;SDS011;43467;50.890;5.982;2022-12-18T05:02:31;20.90;;;11.07;;
36233;SDS011;43467;50.890;5.982;2022-12-18T05:04:57;20.70;;;11.70;;
36233;SDS011;43467;50.890;5.982;2022-12-18T05:07:22;19.95;;;12.00;;
36233;SDS011;43467;50.890;5.982;2022-12-18T05:09:47;21.23;;;12.32;;
36233;SDS011;43467;50.890;5.982;2022-12-18T05:12:13;22.77;;;11.77;;
36233;SDS011;43467;50.890;5.982;2022-12-18T05:14:38;21.15;;;11.68;;
36233;SDS011;43467;50.890;5.982;2022-12-18T05:17:03;24.58;;;12.50;;
36233;SDS011;43467;50.890;5.982;2022-12-18T05:19:29;24.05;;;13.20;;
36233;SDS011;43467;50.890;5.982;2022-12-18T05:21:54;22.08;;;12.43;;
36233;SDS011;43467;50.890;5.982;2022-12-18T05:24:19;19.85;;;11.88;;
36233;SDS011;43467;50.890;5.982;2022-12-18T05:26:45;21.55;;;11.25;;
36233;SDS011;43467;50.890;5.982;2022-12-18T05:29:10;22.40;;;12.57;;
36233;SDS011;43467;50.890;5.982;2022-12-18T05:31:37;22.58;;;12.45;;
36233;SDS011;43467;50.890;5.982;2022-12-18T05:34:03;27.15;;;13.00;;
36233;SDS011;43467;50.890;5.982;2022-12-18T05:36:29;20.90;;;12.07;;
36233;SDS011;43467;50.890;5.982;2022-12-18T05:38:54;22.23;;;12.50;;
36233;SDS011;43467;50.890;5.982;2022-12-18T05:41:19;21.92;;;12.38;;
36233;SDS011;43467;50.890;5.982;2022-12-18T05:43:45;19.83;;;12.23;;
36233;SDS011;43467;50.890;5.982;2022-12-18T05:46:14;23.90;;;13.00;;
36233;SDS011;43467;50.890;5.982;2022-12-18T05:51:12;22.35;;;12.40;;
36233;SDS011;43467;50.890;5.982;2022-12-18T05:53:39;22.80;;;12.55;;
36233;SDS011;43467;50.890;5.982;2022-12-18T05:56:07;25.02;;;13.45;;
36233;SDS011;43467;50.890;5.982;2022-12-18T05:58:34;22.00;;;12.45;;
36233;SDS011;43467;50.890;5.982;2022-12-18T06:01:13;23.10;;;12.63;;
36233;SDS011;43467;50.890;5.982;2022-12-18T06:03:41;26.65;;;13.98;;
36233;SDS011;43467;50.890;5.982;2022-12-18T06:06:16;22.80;;;11.95;;
36233;SDS011;43467;50.890;5.982;2022-12-18T06:08:43;22.85;;;13.10;;
36233;SDS011;43467;50.890;5.982;2022-12-18T06:11:09;22.58;;;12.80;;
36233;SDS011;43467;50.890;5.982;2022-12-18T06:13:34;22.00;;;12.07;;
36233;SDS011;43467;50.890;5.982;2022-12-18T06:16:03;21.40;;;12.25;;
36233;SDS011;43467;50.890;5.982;2022-12-18T06:18:29;22.48;;;12.52;;
36233;SDS011;43467;50.890;5.982;2022-12-18T06:20:55;24.73;;;12.10;;
36233;SDS011;43467;50.890;5.982;2022-12-18T06:23:22;23.95;;;13.60;;
36233;SDS011;43467;50.890;5.982;2022-12-18T06:25:48;22.13;;;13.00;;
36233;SDS011;43467;50.890;5.982;2022-12-18T06:28:13;24.73;;;13.35;;
36233;SDS011;43467;50.890;5.982;2022-12-18T06:30:38;21.52;;;12.57;;
36233;SDS011;43467;50.890;5.982;2022-12-18T06:33:04;21.33;;;12.90;;
36233;SDS011;43467;50.890;5.982;2022-12-18T06:35:29;21.67;;;13.13;;
36233;SDS011;43467;50.890;5.982;2022-12-18T06:37:56;22.30;;;12.18;;
36233;SDS011;43467;50.890;5.982;2022-12-18T06:40:21;26.33;;;13.45;;
36233;SDS011;43467;50.890;5.982;2022-12-18T06:42:47;23.15;;;12.25;;
36233;SDS011;43467;50.890;5.982;2022-12-18T06:45:15;23.23;;;12.80;;
36233;SDS011;43467;50.890;5.982;2022-12-18T06:47:41;25.15;;;13.55;;
36233;SDS011;43467;50.890;5.982;2022-12-18T06:50:06;22.55;;;12.90;;
36233;SDS011;43467;50.890;5.982;2022-12-18T06:52:32;21.83;;;14.05;;
36233;SDS011;43467;50.890;5.982;2022-12-18T06:54:58;22.25;;;12.90;;
36233;SDS011;43467;50.890;5.982;2022-12-18T06:57:23;25.20;;;13.52;;
36233;SDS011;43467;50.890;5.982;2022-12-18T06:59:49;24.48;;;13.93;;
36233;SDS011;43467;50.890;5.982;2022-12-18T07:02:14;25.90;;;13.93;;
36233;SDS011;43467;50.890;5.982;2022-12-18T07:04:40;23.55;;;13.18;;
36233;SDS011;43467;50.890;5.982;2022-12-18T07:07:05;25.52;;;13.52;;
36233;SDS011;43467;50.890;5.982;2022-12-18T07:09:30;25.58;;;13.82;;
36233;SDS011;43467;50.890;5.982;2022-12-18T07:11:56;23.15;;;13.32;;
36233;SDS011;43467;50.890;5.982;2022-12-18T07:14:21;24.13;;;13.63;;
36233;SDS011;43467;50.890;5.982;2022-12-18T07:16:46;24.17;;;14.05;;
36233;SDS011;43467;50.890;5.982;2022-12-18T07:19:12;25.25;;;13.18;;
36233;SDS011;43467;50.890;5.982;2022-12-18T07:21:37;27.58;;;15.45;;
36233;SDS011;43467;50.890;5.982;2022-12-18T07:24:02;23.40;;;13.23;;
36233;SDS011;43467;50.890;5.982;2022-12-18T07:26:28;25.35;;;14.45;;
36233;SDS011;43467;50.890;5.982;2022-12-18T07:28:57;22.95;;;13.43;;
36233;SDS011;43467;50.890;5.982;2022-12-18T07:31:23;28.02;;;14.52;;
36233;SDS011;43467;50.890;5.982;2022-12-18T07:33:49;25.25;;;14.60;;
36233;SDS011;43467;50.890;5.982;2022-12-18T07:36:15;24.48;;;13.30;;
36233;SDS011;43467;50.890;5.982;2022-12-18T07:38:41;30.17;;;14.15;;
36233;SDS011;43467;50.890;5.982;2022-12-18T07:41:11;29.02;;;15.15;;
36233;SDS011;43467;50.890;5.982;2022-12-18T07:43:37;27.45;;;14.43;;
36233;SDS011;43467;50.890;5.982;2022-12-18T07:46:04;26.67;;;14.32;;
36233;SDS011;43467;50.890;5.982;2022-12-18T07:48:30;29.13;;;15.40;;
36233;SDS011;43467;50.890;5.982;2022-12-18T07:50:59;23.50;;;13.50;;
36233;SDS011;43467;50.890;5.982;2022-12-18T07:53:25;30.75;;;15.60;;
36233;SDS011;43467;50.890;5.982;2022-12-18T07:55:55;27.88;;;14.27;;
36233;SDS011;43467;50.890;5.982;2022-12-18T07:58:29;28.75;;;14.68;;
36233;SDS011;43467;50.890;5.982;2022-12-18T08:00:54;27.85;;;15.27;;
36233;SDS011;43467;50.890;5.982;2022-12-18T08:03:31;27.27;;;14.45;;
36233;SDS011;43467;50.890;5.982;2022-12-18T08:06:03;28.17;;;14.52;;
36233;SDS011;43467;50.890;5.982;2022-12-18T08:08:31;27.38;;;14.60;;
36233;SDS011;43467;50.890;5.982;2022-12-18T08:10:57;26.77;;;14.15;;
36233;SDS011;43467;50.890;5.982;2022-12-18T08:13:23;23.55;;;13.45;;
36233;SDS011;43467;50.890;5.982;2022-12-18T08:15:56;29.33;;;15.05;;
36233;SDS011;43467;50.890;5.982;2022-12-18T08:18:22;29.60;;;15.80;;
36233;SDS011;43467;50.890;5.982;2022-12-18T08:20:48;25.73;;;14.77;;
36233;SDS011;43467;50.890;5.982;2022-12-18T08:23:13;26.70;;;14.98;;
36233;SDS011;43467;50.890;5.982;2022-12-18T08:25:38;28.60;;;16.42;;
36233;SDS011;43467;50.890;5.982;2022-12-18T08:28:04;27.52;;;14.77;;
36233;SDS011;43467;50.890;5.982;2022-12-18T08:30:29;32.28;;;16.05;;
36233;SDS011;43467;50.890;5.982;2022-12-18T08:32:54;28.45;;;15.32;;
36233;SDS011;43467;50.890;5.982;2022-12-18T08:35:20;29.40;;;16.00;;
36233;SDS011;43467;50.890;5.982;2022-12-18T08:37:45;28.05;;;14.98;;
36233;SDS011;43467;50.890;5.982;2022-12-18T08:40:11;28.50;;;16.38;;
36233;SDS011;43467;50.890;5.982;2022-12-18T08:42:37;27.00;;;15.05;;
36233;SDS011;43467;50.890;5.982;2022-12-18T08:45:21;26.63;;;16.10;;
36233;SDS011;43467;50.890;5.982;2022-12-18T08:47:47;24.73;;;15.43;;
36233;SDS011;43467;50.890;5.982;2022-12-18T08:50:12;30.50;;;16.08;;
36233;SDS011;43467;50.890;5.982;2022-12-18T08:52:37;31.88;;;15.18;;
36233;SDS011;43467;50.890;5.982;2022-12-18T08:55:03;24.63;;;14.63;;
36233;SDS011;43467;50.890;5.982;2022-12-18T08:57:29;30.02;;;15.65;;
36233;SDS011;43467;50.890;5.982;2022-12-18T08:59:54;29.48;;;16.48;;
36233;SDS011;43467;50.890;5.982;2022-12-18T09:02:20;29.55;;;15.20;;
36233;SDS011;43467;50.890;5.982;2022-12-18T09:04:46;26.70;;;15.68;;
36233;SDS011;43467;50.890;5.982;2022-12-18T09:07:12;30.10;;;16.63;;
36233;SDS011;43467;50.890;5.982;2022-12-18T09:09:38;29.85;;;16.17;;
36233;SDS011;43467;50.890;5.982;2022-12-18T09:12:03;25.30;;;15.32;;
36233;SDS011;43467;50.890;5.982;2022-12-18T09:14:29;27.42;;;15.48;;
36233;SDS011;43467;50.890;5.982;2022-12-18T09:16:54;28.80;;;15.93;;
36233;SDS011;43467;50.890;5.982;2022-12-18T09:19:19;29.88;;;16.38;;
36233;SDS011;43467;50.890;5.982;2022-12-18T09:21:45;26.80;;;15.90;;
36233;SDS011;43467;50.890;5.982;2022-12-18T09:24:13;27.40;;;15.45;;
36233;SDS011;43467;50.890;5.982;2022-12-18T09:26:39;28.65;;;15.65;;
36233;SDS011;43467;50.890;5.982;2022-12-18T09:29:05;26.70;;;16.33;;
36233;SDS011;43467;50.890;5.982;2022-12-18T09:31:32;29.92;;;16.27;;
36233;SDS011;43467;50.890;5.982;2022-12-18T09:33:58;28.25;;;16.27;;
36233;SDS011;43467;50.890;5.982;2022-12-18T09:36:23;32.78;;;18.02;;
36233;SDS011;43467;50.890;5.982;2022-12-18T09:38:49;28.30;;;16.48;;
36233;SDS011;43467;50.890;5.982;2022-12-18T09:43:57;30.80;;;17.77;;
36233;SDS011;43467;50.890;5.982;2022-12-18T09:46:31;29.48;;;17.45;;
36233;SDS011;43467;50.890;5.982;2022-12-18T09:49:04;28.63;;;17.67;;
36233;SDS011;43467;50.890;5.982;2022-12-18T09:54:36;31.90;;;17.60;;
36233;SDS011;43467;50.890;5.982;2022-12-18T09:57:23;29.60;;;18.30;;
36233;SDS011;43467;50.890;5.982;2022-12-18T09:59:55;30.35;;;16.10;;
36233;SDS011;43467;50.890;5.982;2022-12-18T10:02:24;31.40;;;17.33;;
36233;SDS011;43467;50.890;5.982;2022-12-18T10:05:13;32.10;;;17.52;;
36233;SDS011;43467;50.890;5.982;2022-12-18T10:10:27;28.30;;;17.17;;
36233;SDS011;43467;50.890;5.982;2022-12-18T10:15:45;27.98;;;15.75;;
36233;SDS011;43467;50.890;5.982;2022-12-18T10:20:57;33.40;;;16.63;;
36233;SDS011;43467;50.890;5.982;2022-12-18T10:23:33;32.90;;;17.33;;
36233;SDS011;43467;50.890;5.982;2022-12-18T10:26:11;33.05;;;18.10;;
36233;SDS011;43467;50.890;5.982;2022-12-18T10:28:38;26.85;;;15.45;;
36233;SDS011;43467;50.890;5.982;2022-12-18T10:31:05;29.45;;;16.73;;
36233;SDS011;43467;50.890;5.982;2022-12-18T10:33:53;25.63;;;15.43;;
36233;SDS011;43467;50.890;5.982;2022-12-18T10:36:19;27.23;;;16.17;;
36233;SDS011;43467;50.890;5.982;2022-12-18T10:38:45;30.50;;;17.88;;
36233;SDS011;43467;50.890;5.982;2022-12-18T10:46:44;30.23;;;16.63;;
36233;SDS011;43467;50.890;5.982;2022-12-18T10:49:46;32.08;;;17.90;;
36233;SDS011;43467;50.890;5.982;2022-12-18T10:52:10;31.40;;;17.80;;
36233;SDS011;43467;50.890;5.982;2022-12-18T10:54:59;29.73;;;16.25;;
36233;SDS011;43467;50.890;5.982;2022-12-18T10:57:35;35.58;;;18.30;;
36233;SDS011;43467;50.890;5.982;2022-12-18T11:00:26;31.75;;;16.67;;
36233;SDS011;43467;50.890;5.982;2022-12-18T11:02:54;32.85;;;18.17;;
36233;SDS011;43467;50.890;5.982;2022-12-18T11:05:28;32.45;;;18.65;;
36233;SDS011;43467;50.890;5.982;2022-12-18T11:07:55;30.90;;;16.77;;
36233;SDS011;43467;50.890;5.982;2022-12-18T11:10:25;33.60;;;18.63;;
36233;SDS011;43467;50.890;5.982;2022-12-18T11:12:53;31.88;;;17.90;;
36233;SDS011;43467;50.890;5.982;2022-12-18T11:15:20;32.28;;;18.33;;
36233;SDS011;43467;50.890;5.982;2022-12-18T11:17:50;32.42;;;18.60;;
36233;SDS011;43467;50.890;5.982;2022-12-18T11:22:58;31.23;;;19.02;;
36233;SDS011;43467;50.890;5.982;2022-12-18T11:25:24;34.95;;;19.35;;
36233;SDS011;43467;50.890;5.982;2022-12-18T11:28:24;35.63;;;18.52;;
36233;SDS011;43467;50.890;5.982;2022-12-18T11:31:09;37.33;;;19.48;;
36233;SDS011;43467;50.890;5.982;2022-12-18T11:33:37;32.05;;;18.10;;
36233;SDS011;43467;50.890;5.982;2022-12-18T11:36:06;33.30;;;18.75;;
36233;SDS011;43467;50.890;5.982;2022-12-18T11:38:37;29.23;;;17.92;;
36233;SDS011;43467;50.890;5.982;2022-12-18T11:44:26;31.80;;;18.17;;
36233;SDS011;43467;50.890;5.982;2022-12-18T11:47:00;34.30;;;19.95;;
36233;SDS011;43467;50.890;5.982;2022-12-18T11:49:34;32.70;;;18.60;;
36233;SDS011;43467;50.890;5.982;2022-12-18T11:52:01;33.58;;;20.23;;
36233;SDS011;43467;50.890;5.982;2022-12-18T11:54:34;36.63;;;19.35;;
36233;SDS011;43467;50.890;5.982;2022-12-18T11:57:09;32.00;;;18.85;;
36233;SDS011;43467;50.890;5.982;2022-12-18T12:07:55;31.00;;;19.45;;
36233;SDS011;43467;50.890;5.982;2022-12-18T12:13:08;30.55;;;19.15;;
36233;SDS011;43467;50.890;5.982;2022-12-18T12:18:33;30.85;;;18.45;;
36233;SDS011;43467;50.890;5.982;2022-12-18T12:21:21;31.08;;;18.63;;
36233;SDS011;43467;50.890;5.982;2022-12-18T12:24:03;35.17;;;18.80;;
36233;SDS011;43467;50.890;5.982;2022-12-18T12:37:49;29.33;;;17.63;;
36233;SDS011;43467;50.890;5.982;2022-12-18T12:40:22;32.83;;;18.25;;
36233;SDS011;43467;50.890;5.982;2022-12-18T12:42:52;32.15;;;18.60;;
36233;SDS011;43467;50.890;5.982;2022-12-18T12:45:42;29.77;;;18.13;;
36233;SDS011;43467;50.890;5.982;2022-12-18T12:51:22;30.80;;;18.55;;
36233;SDS011;43467;50.890;5.982;2022-12-18T12:53:49;32.95;;;18.02;;
36233;SDS011;43467;50.890;5.982;2022-12-18T12:56:15;27.60;;;16.60;;
36233;SDS011;43467;50.890;5.982;2022-12-18T13:07:01;29.95;;;18.65;;
36233;SDS011;43467;50.890;5.982;2022-12-18T13:09:32;31.52;;;19.40;;
36233;SDS011;43467;50.890;5.982;2022-12-18T13:12:09;29.70;;;17.92;;
36233;SDS011;43467;50.890;5.982;2022-12-18T13:14:55;29.75;;;18.38;;
36233;SDS011;43467;50.890;5.982;2022-12-18T13:17:38;27.75;;;17.30;;
36233;SDS011;43467;50.890;5.982;2022-12-18T13:22:35;31.45;;;19.05;;
36233;SDS011;43467;50.890;5.982;2022-12-18T13:25:30;34.85;;;19.42;;
36233;SDS011;43467;50.890;5.982;2022-12-18T13:35:38;31.73;;;18.55;;
36233;SDS011;43467;50.890;5.982;2022-12-18T13:48:49;34.65;;;20.13;;
36233;SDS011;43467;50.890;5.982;2022-12-18T13:51:17;31.98;;;18.13;;
36233;SDS011;43467;50.890;5.982;2022-12-18T13:56:21;30.52;;;18.92;;
36233;SDS011;43467;50.890;5.982;2022-12-18T13:59:11;30.42;;;18.65;;
36233;SDS011;43467;50.890;5.982;2022-12-18T14:01:46;27.88;;;17.25;;
36233;SDS011;43467;50.890;5.982;2022-12-18T14:04:27;30.15;;;18.73;;
36233;SDS011;43467;50.890;5.982;2022-12-18T14:07:00;30.27;;;18.30;;
36233;SDS011;43467;50.890;5.982;2022-12-18T14:09:30;31.27;;;18.98;;
36233;SDS011;43467;50.890;5.982;2022-12-18T14:11:59;31.20;;;19.52;;
36233;SDS011;43467;50.890;5.982;2022-12-18T14:14:45;29.75;;;17.65;;
36233;SDS011;43467;50.890;5.982;2022-12-18T14:17:12;29.98;;;17.90;;
36233;SDS011;43467;50.890;5.982;2022-12-18T14:19:43;30.20;;;18.15;;
36233;SDS011;43467;50.890;5.982;2022-12-18T14:22:24;29.80;;;17.27;;
36233;SDS011;43467;50.890;5.982;2022-12-18T14:27:42;29.08;;;18.45;;
36233;SDS011;43467;50.890;5.982;2022-12-18T14:33:08;29.55;;;17.45;;
36233;SDS011;43467;50.890;5.982;2022-12-18T14:35:43;29.15;;;18.23;;
36233;SDS011;43467;50.890;5.982;2022-12-18T14:38:23;30.20;;;19.08;;
36233;SDS011;43467;50.890;5.982;2022-12-18T14:40:55;34.05;;;18.08;;
36233;SDS011;43467;50.890;5.982;2022-12-18T14:43:26;31.77;;;18.45;;
36233;SDS011;43467;50.890;5.982;2022-12-18T14:45:53;31.25;;;18.75;;
36233;SDS011;43467;50.890;5.982;2022-12-18T14:51:04;28.25;;;16.88;;
36233;SDS011;43467;50.890;5.982;2022-12-18T14:54:05;32.38;;;17.35;;
36233;SDS011;43467;50.890;5.982;2022-12-18T14:56:45;34.88;;;18.13;;
36233;SDS011;43467;50.890;5.982;2022-12-18T14:59:13;33.03;;;18.15;;
36233;SDS011;43467;50.890;5.982;2022-12-18T15:01:45;37.78;;;18.35;;
36233;SDS011;43467;50.890;5.982;2022-12-18T15:07:04;31.58;;;18.75;;
36233;SDS011;43467;50.890;5.982;2022-12-18T15:09:36;36.70;;;19.25;;
36233;SDS011;43467;50.890;5.982;2022-12-18T15:12:03;33.25;;;19.90;;
36233;SDS011;43467;50.890;5.982;2022-12-18T15:17:06;30.20;;;18.60;;
36233;SDS011;43467;50.890;5.982;2022-12-18T15:19:42;29.98;;;18.65;;
36233;SDS011;43467;50.890;5.982;2022-12-18T15:24:52;33.88;;;19.33;;
36233;SDS011;43467;50.890;5.982;2022-12-18T15:27:40;29.58;;;19.70;;
36233;SDS011;43467;50.890;5.982;2022-12-18T15:30:17;35.15;;;21.15;;
36233;SDS011;43467;50.890;5.982;2022-12-18T15:32:44;35.58;;;21.15;;
36233;SDS011;43467;50.890;5.982;2022-12-18T15:37:36;34.33;;;19.80;;
36233;SDS011;43467;50.890;5.982;2022-12-18T15:40:05;33.05;;;19.88;;
36233;SDS011;43467;50.890;5.982;2022-12-18T15:42:31;33.35;;;20.15;;
36233;SDS011;43467;50.890;5.982;2022-12-18T15:45:15;36.58;;;21.23;;
36233;SDS011;43467;50.890;5.982;2022-12-18T15:47:40;34.42;;;19.73;;
36233;SDS011;43467;50.890;5.982;2022-12-18T15:50:09;42.58;;;21.60;;
36233;SDS011;43467;50.890;5.982;2022-12-18T15:52:41;31.85;;;18.63;;
36233;SDS011;43467;50.890;5.982;2022-12-18T15:55:16;34.83;;;20.30;;
36233;SDS011;43467;50.890;5.982;2022-12-18T15:58:03;37.15;;;21.30;;
36233;SDS011;43467;50.890;5.982;2022-12-18T16:00:32;31.27;;;20.52;;
36233;SDS011;43467;50.890;5.982;2022-12-18T16:02:59;37.05;;;20.88;;
36233;SDS011;43467;50.890;5.982;2022-12-18T16:05:24;34.50;;;20.52;;
36233;SDS011;43467;50.890;5.982;2022-12-18T16:07:51;34.70;;;21.15;;
36233;SDS011;43467;50.890;5.982;2022-12-18T16:10:16;36.88;;;21.38;;
36233;SDS011;43467;50.890;5.982;2022-12-18T16:12:42;39.95;;;22.40;;
36233;SDS011;43467;50.890;5.982;2022-12-18T16:15:09;41.42;;;24.40;;
36233;SDS011;43467;50.890;5.982;2022-12-18T16:17:36;42.40;;;22.42;;
36233;SDS011;43467;50.890;5.982;2022-12-18T16:20:01;42.95;;;24.48;;
36233;SDS011;43467;50.890;5.982;2022-12-18T16:22:28;40.72;;;22.83;;
36233;SDS011;43467;50.890;5.982;2022-12-18T16:24:55;39.03;;;22.38;;
36233;SDS011;43467;50.890;5.982;2022-12-18T16:27:21;34.50;;;20.67;;
36233;SDS011;43467;50.890;5.982;2022-12-18T16:29:47;37.75;;;22.55;;
36233;SDS011;43467;50.890;5.982;2022-12-18T16:32:17;38.05;;;21.83;;
36233;SDS011;43467;50.890;5.982;2022-12-18T16:34:44;37.25;;;22.15;;
36233;SDS011;43467;50.890;5.982;2022-12-18T16:37:11;37.13;;;22.77;;
36233;SDS011;43467;50.890;5.982;2022-12-18T16:39:37;40.38;;;23.25;;
36233;SDS011;43467;50.890;5.982;2022-12-18T16:42:05;39.40;;;22.58;;
36233;SDS011;43467;50.890;5.982;2022-12-18T16:44:37;44.45;;;27.52;;
36233;SDS011;43467;50.890;5.982;2022-12-18T16:47:03;37.35;;;23.38;;
36233;SDS011;43467;50.890;5.982;2022-12-18T16:49:28;35.78;;;21.40;;
36233;SDS011;43467;50.890;5.982;2022-12-18T16:51:54;39.10;;;23.27;;
36233;SDS011;43467;50.890;5.982;2022-12-18T16:54:19;36.47;;;21.60;;